Airfield :
LOGIN :

Register | Disclaimer

   EN    FR    IT 

 










Legend :    VFR   Marginal VFR   IFR   Intensive IFR   Very Intensive IFR
Visi :
Ceiling :
>= 8 km
>= 3000ft
5 to 8 km
1000 to 3000 ft
1500m to 5 km
500 to 1000 ft
800 to 1500m
200 to 500 ft
< 800m
< 200 ft
Symbols :   Thunderstorms  Fog  Heavy snow  Heavy precipitations  Wind > 20 kt
SIGMETs :     Misc.  Thunderstorms  Icing  Turbulence  Mountain Waves  Volcanic Ashes







- Airport Elevation : 622 ft
- IATA code : BRS
- Download approach charts


EGGD - Bristol Int.

CURRENT METAR :
  • 230450Z AUTO 26023G33KT 9999 SCT007 BKN010 OVC014 08/07 Q0989

EXPIRED METARs :
  • 230420Z AUTO 26020G31KT 9999 -RA BKN002 OVC005 10/10 Q0987 RERA REDZ
  • 230350Z AUTO 25016KT 9999 -RA BKN003 OVC006 11/11 Q0986 RERA
  • 230320Z AUTO 23012KT 9000 -RA BKN004 BKN009 OVC013 11/11 Q0986
  • 230250Z AUTO 22012KT 9999 SCT008 BKN014 OVC020 11/10 Q0985
  • 230220Z AUTO 22013KT 9999 BKN007 OVC018 11/11 Q0985

TAF COR TAF EGGD
Valid from the 23 at 04:00 until the 24 at 00:00 UTC


230414Z 2304/2324 24015KT 4000 RADZ BKN002
BECMG 2304/2307 9999 NSW BKN018
TEMPO 2304/2316 24017G27KT
PROB30
TEMPO 2319/2324 9000 RA
ATIS : +44 1275 473 666
No reported NOTAMs for that airfield.
1 SIGMET reported for the London FIR (EGTT) :
 
Severe turbulence
EGTT SIGMET 01 VALID 230200/230600 EGRR
EGTT LONDON FIR SEV TURB FCST SE OF LINE N5000 W00200 - N5500 E00126 SFC/FL060 MOV E 25KT NC=



MET'MAP, your aeronautical weather chart ! - Copyright ORBIFLY December 2007 - Disclaimer

ORBIFLY MET'MAP TEAM :

Programming & Development : Alexandra Zaïnal
Concept & Development : Baudouin d'Aumeries
Co-Development & Prog : Marc-Olivier Méhu
Technical & hardware support : Manuel Goepfert

Contact : metmap@orbifly.com




SOURCES & CREDITS :

   NOAA